Time;durP1;ratioP1;P1;durP2;ratioP2;P2;SDS_P1;SDS_P2;PMS_P1;PMS_P2;Temp;Humidity;BMP_temperature;BMP_pressure;BME280_temperature;BME280_humidity;BME280_pressure;Samples;Min_cycle;Max_cycle;Signal;HPM_P1;HPM_P2
2021/10/01 00:00:40;;;;;;;18.77;14.00;;;27.70;99.90;;;;;;1948069;74;21193;-90
2021/10/01 00:05:47;;;;;;;17.80;14.20;;;27.60;99.90;;;;;;1939999;73;21622;-91
2021/10/01 00:08:18;;;;;;;19.10;13.80;;;27.70;99.90;;;;;;1933391;74;21069;-90
2021/10/01 00:10:49;;;;;;;18.98;14.13;;;27.80;99.90;;;;;;1933534;74;21041;-90
2021/10/01 00:13:20;;;;;;;18.32;13.43;;;27.80;99.90;;;;;;1933391;74;21654;-91
2021/10/01 00:15:51;;;;;;;17.57;14.10;;;27.80;99.90;;;;;;1936504;74;21574;-90
2021/10/01 00:18:23;;;;;;;16.20;13.65;;;27.80;99.90;;;;;;1948029;73;21601;-91
2021/10/01 00:20:53;;;;;;;17.30;14.58;;;27.80;99.90;;;;;;1948003;74;21057;-89
2021/10/01 00:23:24;;;;;;;19.20;13.72;;;27.90;99.90;;;;;;1947968;74;21122;-91
2021/10/01 00:25:55;;;;;;;16.65;14.23;;;27.90;99.90;;;;;;1944933;74;21147;-91
2021/10/01 00:28:25;;;;;;;17.48;13.88;;;27.90;99.90;;;;;;1877655;76;21106;-89
2021/10/01 00:30:57;;;;;;;20.17;14.40;;;27.90;99.90;;;;;;1914330;75;21564;-90
2021/10/01 00:33:28;;;;;;;15.65;13.85;;;28.00;99.90;;;;;;1878164;76;21156;-90
2021/10/01 00:36:00;;;;;;;15.75;13.95;;;28.00;99.90;;;;;;1916413;74;21054;-90
2021/10/01 00:38:34;;;;;;;16.75;14.53;;;28.00;99.90;;;;;;1933205;74;21073;-90
2021/10/01 00:41:05;;;;;;;18.07;14.55;;;28.00;99.90;;;;;;1933185;74;21104;-89
2021/10/01 00:43:36;;;;;;;20.72;14.50;;;28.10;99.90;;;;;;1933025;74;21123;-90
2021/10/01 00:46:07;;;;;;;17.32;13.88;;;28.10;99.90;;;;;;1932876;74;21505;-89
2021/10/01 00:48:38;;;;;;;15.15;13.28;;;28.10;99.90;;;;;;1914239;75;21073;-92
2021/10/01 00:51:10;;;;;;;18.57;13.50;;;28.10;99.90;;;;;;1914353;75;21352;-92
2021/10/01 00:53:41;;;;;;;18.77;13.65;;;28.20;99.90;;;;;;1914283;75;21150;-82
2021/10/01 00:56:12;;;;;;;17.40;12.90;;;28.30;99.90;;;;;;1913528;75;21151;-84
2021/10/01 00:58:42;;;;;;;22.62;14.05;;;28.30;99.90;;;;;;1940832;73;21187;-81
2021/10/01 01:01:14;;;;;;;19.45;14.38;;;28.40;99.90;;;;;;1940423;73;21074;-82
2021/10/01 01:03:49;;;;;;;17.48;13.22;;;28.40;99.90;;;;;;1943997;72;21220;-82
2021/10/01 01:06:22;;;;;;;20.60;13.15;;;28.50;99.90;;;;;;1927480;72;21542;-84
2021/10/01 01:08:55;;;;;;;17.52;13.38;;;28.50;99.90;;;;;;1917131;73;21244;-83
2021/10/01 01:11:30;;;;;;;20.52;13.60;;;28.50;99.90;;;;;;1886879;75;21552;-83
2021/10/01 01:14:04;;;;;;;19.77;12.75;;;28.60;99.90;;;;;;1930546;73;21046;-84
2021/10/01 01:16:36;;;;;;;16.37;13.22;;;28.70;99.90;;;;;;1911938;75;21201;-83
2021/10/01 01:19:10;;;;;;;15.90;12.40;;;28.70;99.90;;;;;;1927973;74;21492;-84
2021/10/01 01:21:43;;;;;;;16.95;12.10;;;28.80;99.90;;;;;;1942842;74;21178;-83
2021/10/01 01:24:17;;;;;;;16.70;12.28;;;28.80;99.90;;;;;;1942724;74;21650;-82
2021/10/01 01:26:51;;;;;;;17.73;12.23;;;28.90;99.90;;;;;;1936499;74;21527;-83
2021/10/01 01:29:24;;;;;;;16.75;11.40;;;28.90;99.90;;;;;;1927513;73;21085;-82
2021/10/01 01:31:58;;;;;;;15.25;11.70;;;29.00;99.90;;;;;;1880220;76;21241;-82
2021/10/01 01:34:31;;;;;;;15.93;10.63;;;29.00;99.90;;;;;;1951708;73;21068;-82
2021/10/01 01:37:04;;;;;;;16.62;11.65;;;29.10;99.90;;;;;;1911790;75;21501;-82
2021/10/01 01:39:38;;;;;;;17.85;10.85;;;29.20;99.90;;;;;;1929257;74;21109;-82
2021/10/01 01:42:10;;;;;;;13.35;10.18;;;29.20;99.90;;;;;;1910600;75;21069;-84
2021/10/01 01:44:42;;;;;;;14.43;10.68;;;29.20;99.90;;;;;;1896115;74;21622;-84
2021/10/01 01:47:15;;;;;;;14.10;10.18;;;29.30;99.90;;;;;;1945396;74;21110;-84
2021/10/01 01:49:46;;;;;;;12.78;10.53;;;29.40;99.90;;;;;;1945125;74;21088;-82
2021/10/01 01:52:19;;;;;;;16.17;10.23;;;29.50;99.90;;;;;;1933173;74;21092;-83
2021/10/01 01:54:51;;;;;;;12.23;9.25;;;29.60;99.90;;;;;;1941501;74;21556;-83
2021/10/01 01:57:24;;;;;;;14.55;9.28;;;29.70;99.90;;;;;;1967951;72;21196;-83
2021/10/01 01:59:57;;;;;;;12.55;9.35;;;29.70;99.90;;;;;;1982225;72;21060;-83
2021/10/01 02:02:30;;;;;;;12.25;9.10;;;29.80;99.90;;;;;;1947901;74;21053;-84
2021/10/01 02:05:02;;;;;;;13.18;9.20;;;29.90;99.90;;;;;;1948751;74;21161;-84
2021/10/01 02:07:34;;;;;;;12.43;9.20;;;29.90;99.90;;;;;;1936961;74;21626;-83
2021/10/01 02:10:06;;;;;;;11.83;9.13;;;29.90;99.90;;;;;;1914587;75;21166;-83
2021/10/01 02:12:38;;;;;;;13.75;8.78;;;30.00;99.90;;;;;;1914921;75;21544;-85
2021/10/01 02:15:11;;;;;;;11.85;8.95;;;30.10;99.90;;;;;;1914128;75;21127;-84
2021/10/01 02:17:45;;;;;;;12.20;7.90;;;30.20;99.90;;;;;;1929690;74;21057;-83
2021/10/01 02:20:18;;;;;;;9.00;7.42;;;30.30;99.90;;;;;;1932237;74;21449;-82
2021/10/01 02:22:50;;;;;;;21.85;9.18;;;30.30;99.30;;;;;;1932150;74;21158;-81
2021/10/01 02:27:56;;;;;;;11.60;8.13;;;30.50;99.40;;;;;;1930550;74;21590;-80
2021/10/01 02:30:29;;;;;;;14.23;8.15;;;30.70;98.70;;;;;;1931330;74;21560;-82
2021/10/01 02:33:02;;;;;;;10.85;8.18;;;30.80;98.70;;;;;;1876436;76;21584;-82
2021/10/01 02:35:34;;;;;;;11.97;8.08;;;30.80;98.10;;;;;;1920432;74;21057;-82
2021/10/01 02:38:05;;;;;;;9.60;7.50;;;31.00;98.60;;;;;;1933023;74;21069;-85
2021/10/01 02:40:37;;;;;;;11.45;7.45;;;31.10;98.00;;;;;;1933119;74;21111;-82
2021/10/01 02:43:07;;;;;;;7.95;6.10;;;31.30;97.80;;;;;;1932098;74;21064;-82
2021/10/01 02:45:38;;;;;;;9.73;6.17;;;31.50;96.90;;;;;;1932182;74;21135;-83
2021/10/01 02:48:09;;;;;;;8.25;7.05;;;31.60;95.80;;;;;;1918011;74;21078;-81
2021/10/01 02:50:42;;;;;;;11.40;7.50;;;31.70;95.40;;;;;;1930248;74;21202;-82
2021/10/01 02:53:16;;;;;;;9.75;7.20;;;31.80;96.30;;;;;;1932405;74;21069;-86
2021/10/01 02:55:50;;;;;;;9.35;6.67;;;31.90;95.70;;;;;;1932251;74;21684;-85
2021/10/01 02:58:23;;;;;;;9.53;5.55;;;31.90;94.20;;;;;;1940471;74;21583;-82
2021/10/01 03:00:55;;;;;;;6.70;5.00;;;32.00;94.00;;;;;;1939204;73;21664;-82
2021/10/01 03:03:28;;;;;;;7.05;5.80;;;32.10;93.70;;;;;;1922855;73;21117;-80
2021/10/01 03:06:02;;;;;;;8.53;5.87;;;32.30;93.20;;;;;;1939965;74;21611;-82
2021/10/01 03:08:34;;;;;;;7.20;5.72;;;32.40;93.30;;;;;;1918824;74;21646;-80
2021/10/01 03:11:10;;;;;;;5.92;5.33;;;32.40;93.20;;;;;;1913395;75;21520;-81
2021/10/01 03:13:40;;;;;;;8.33;6.15;;;32.40;92.60;;;;;;1913242;75;21104;-80
2021/10/01 03:16:12;;;;;;;7.85;5.67;;;32.60;92.50;;;;;;1913348;75;21527;-80
2021/10/01 03:18:44;;;;;;;9.83;6.42;;;32.60;92.60;;;;;;1915499;72;21237;-83
2021/10/01 03:21:17;;;;;;;11.12;6.70;;;32.60;92.80;;;;;;1920419;72;21137;-80
2021/10/01 03:23:48;;;;;;;8.35;5.70;;;32.40;93.10;;;;;;1930260;72;21759;-80
2021/10/01 03:26:20;;;;;;;8.05;6.05;;;32.10;93.20;;;;;;1913792;75;21061;-81
2021/10/01 03:28:50;;;;;;;7.10;5.20;;;32.00;93.20;;;;;;1954838;72;21124;-81
2021/10/01 03:31:23;;;;;;;9.08;6.60;;;31.90;93.30;;;;;;1955933;72;21142;-81
2021/10/01 03:33:54;;;;;;;9.18;5.78;;;31.80;93.40;;;;;;1944950;73;21487;-81
2021/10/01 03:36:27;;;;;;;7.28;6.08;;;31.80;93.40;;;;;;1930269;72;21166;-81
2021/10/01 03:38:58;;;;;;;11.38;5.95;;;31.70;93.70;;;;;;1921781;72;21229;-80
2021/10/01 03:41:29;;;;;;;10.95;6.30;;;31.60;94.20;;;;;;1932051;72;21074;-81
2021/10/01 03:44:00;;;;;;;9.53;6.22;;;31.50;94.20;;;;;;1914998;74;21186;-81
2021/10/01 03:46:30;;;;;;;7.05;5.83;;;31.50;94.40;;;;;;1944927;72;21186;-80
2021/10/01 03:49:01;;;;;;;8.15;6.28;;;31.40;94.00;;;;;;1944556;72;21603;-81
2021/10/01 03:51:32;;;;;;;9.20;5.65;;;31.50;94.50;;;;;;1950398;72;21041;-82
2021/10/01 03:54:03;;;;;;;7.65;5.58;;;31.70;93.60;;;;;;1980094;72;21595;-80
2021/10/01 03:56:34;;;;;;;13.28;5.37;;;32.10;93.00;;;;;;1945769;74;21076;-77
2021/10/01 03:59:05;;;;;;;8.50;5.45;;;32.40;91.90;;;;;;1914837;72;21128;-82
2021/10/01 04:01:35;;;;;;;8.48;5.87;;;32.70;91.50;;;;;;1922638;74;21057;-81
2021/10/01 04:04:07;;;;;;;8.05;5.20;;;32.90;91.30;;;;;;1940795;74;21127;-80
2021/10/01 04:06:39;;;;;;;8.90;5.25;;;33.20;90.40;;;;;;1929870;72;21151;-83
2021/10/01 04:09:10;;;;;;;8.80;6.10;;;33.20;90.20;;;;;;1900244;74;21090;-83
2021/10/01 04:11:41;;;;;;;7.45;6.03;;;33.20;90.70;;;;;;1914204;75;21086;-84
2021/10/01 04:14:12;;;;;;;7.85;6.55;;;33.10;90.60;;;;;;1917675;74;21106;-85
2021/10/01 04:16:43;;;;;;;8.70;6.10;;;33.10;90.40;;;;;;1917208;72;21523;-82
2021/10/01 04:19:14;;;;;;;8.08;6.97;;;33.10;90.60;;;;;;1955740;72;21130;-82
2021/10/01 04:21:47;;;;;;;8.85;6.37;;;33.20;92.10;;;;;;1904425;74;21476;-83
2021/10/01 04:24:18;;;;;;;8.08;6.12;;;33.20;92.00;;;;;;1916839;74;21131;-82
2021/10/01 04:26:49;;;;;;;9.80;6.90;;;33.20;92.10;;;;;;1925626;72;21532;-84
2021/10/01 04:29:20;;;;;;;8.68;6.67;;;33.20;92.50;;;;;;1925835;74;21061;-82
2021/10/01 04:31:51;;;;;;;9.93;6.37;;;33.10;91.40;;;;;;1921891;72;21078;-81
2021/10/01 04:34:22;;;;;;;7.83;6.25;;;33.10;91.20;;;;;;1913932;75;21140;-82
2021/10/01 04:36:53;;;;;;;9.63;6.10;;;33.10;91.20;;;;;;1926211;72;21247;-84
2021/10/01 04:39:24;;;;;;;9.08;6.55;;;33.10;91.30;;;;;;1929126;72;21136;-82
2021/10/01 04:41:55;;;;;;;9.90;6.50;;;33.10;92.20;;;;;;1922966;72;21582;-82
2021/10/01 04:44:26;;;;;;;8.25;6.45;;;33.00;92.20;;;;;;1914955;72;21543;-82
2021/10/01 04:46:57;;;;;;;8.08;6.87;;;32.90;92.10;;;;;;1906057;74;21147;-82
2021/10/01 04:49:28;;;;;;;8.25;6.15;;;32.80;92.10;;;;;;1916648;74;21670;-82
2021/10/01 04:51:59;;;;;;;9.60;6.28;;;32.70;91.40;;;;;;1921965;73;21119;-82
2021/10/01 04:54:30;;;;;;;8.20;6.00;;;32.70;91.60;;;;;;1912019;74;21100;-82
2021/10/01 04:57:01;;;;;;;7.90;5.08;;;32.70;91.00;;;;;;1927288;74;21077;-83
2021/10/01 04:59:32;;;;;;;6.12;5.42;;;32.70;90.80;;;;;;1916138;75;21487;-84
2021/10/01 05:02:03;;;;;;;6.97;5.00;;;32.70;90.80;;;;;;1899666;74;21222;-83
2021/10/01 05:04:33;;;;;;;6.12;4.97;;;32.60;90.40;;;;;;1919443;74;21041;-84
2021/10/01 05:07:04;;;;;;;7.28;5.03;;;32.60;90.80;;;;;;1926425;72;21041;-83
2021/10/01 05:09:36;;;;;;;7.20;5.95;;;32.70;90.20;;;;;;1918862;72;21512;-83
2021/10/01 05:12:07;;;;;;;7.05;4.78;;;32.70;90.90;;;;;;1937674;72;21111;-83
2021/10/01 05:14:38;;;;;;;9.80;5.50;;;32.70;90.80;;;;;;1938003;72;21074;-82
2021/10/01 05:17:09;;;;;;;5.62;4.90;;;32.70;90.50;;;;;;1937481;74;21060;-82
2021/10/01 05:19:40;;;;;;;8.40;5.37;;;32.90;90.80;;;;;;1944371;72;21048;-82
2021/10/01 05:22:10;;;;;;;6.37;5.60;;;32.90;90.60;;;;;;1981870;72;21510;-81
2021/10/01 05:24:42;;;;;;;6.72;5.17;;;33.10;90.80;;;;;;1942368;72;21521;-83
2021/10/01 05:27:13;;;;;;;9.03;5.08;;;33.20;90.70;;;;;;1959700;72;21122;-79
2021/10/01 05:29:44;;;;;;;12.20;5.60;;;33.20;91.00;;;;;;1973348;72;21183;-80
2021/10/01 05:32:15;;;;;;;7.45;5.40;;;33.10;90.90;;;;;;1947222;74;21060;-79
2021/10/01 05:34:47;;;;;;;8.03;5.87;;;33.00;90.50;;;;;;1901326;74;21575;-79
2021/10/01 05:37:18;;;;;;;11.85;5.75;;;33.00;90.90;;;;;;1933005;74;21185;-81
2021/10/01 05:39:49;;;;;;;8.83;5.50;;;33.00;90.50;;;;;;1907504;74;21225;-82
2021/10/01 05:42:20;;;;;;;7.97;6.08;;;33.10;90.80;;;;;;1918271;74;21522;-81
2021/10/01 05:44:51;;;;;;;5.58;4.97;;;33.10;90.30;;;;;;1951658;73;21631;-83
2021/10/01 05:47:23;;;;;;;13.65;5.62;;;33.20;90.50;;;;;;1943224;73;21175;-82
2021/10/01 05:49:55;;;;;;;6.28;5.25;;;33.20;90.30;;;;;;1957305;73;21100;-81
2021/10/01 05:52:48;;;;;;;7.90;5.50;;;33.10;90.70;;;;;;1935993;74;21064;-81
2021/10/01 05:54:59;;;;;;;11.12;5.70;;;33.00;90.30;;;;;;1930736;72;21136;-81
2021/10/01 05:57:30;;;;;;;10.00;6.40;;;33.00;90.70;;;;;;1934320;74;21605;-81
2021/10/01 06:00:01;;;;;;;7.62;5.58;;;33.00;90.70;;;;;;1941632;73;21072;-81
2021/10/01 06:02:32;;;;;;;8.65;5.72;;;33.10;90.70;;;;;;1948496;73;21134;-80
2021/10/01 06:05:03;;;;;;;6.78;5.03;;;33.00;90.50;;;;;;1946929;74;21615;-80
2021/10/01 06:07:35;;;;;;;5.97;5.00;;;33.10;90.10;;;;;;1939422;74;21524;-81
2021/10/01 06:10:07;;;;;;;6.20;5.58;;;33.20;89.20;;;;;;1932951;74;21105;-81
2021/10/01 06:12:39;;;;;;;8.73;6.22;;;33.40;89.50;;;;;;1940053;73;21209;-81
2021/10/01 06:15:11;;;;;;;11.90;8.25;;;33.60;88.40;;;;;;1945483;74;21497;-80
2021/10/01 06:17:42;;;;;;;5.75;5.15;;;33.80;89.00;;;;;;1938534;74;21064;-81
2021/10/01 06:20:14;;;;;;;5.85;4.97;;;34.00;86.70;;;;;;1943902;74;21193;-81
2021/10/01 06:22:45;;;;;;;5.55;4.83;;;34.20;84.40;;;;;;1934097;74;21208;-82
2021/10/01 06:25:16;;;;;;;52.50;8.55;;;34.30;85.00;;;;;;1948333;74;21278;-80
2021/10/01 06:28:04;;;;;;;10.90;5.97;;;34.30;84.10;;;;;;1951827;72;21041;-80
2021/10/01 06:30:35;;;;;;;8.90;5.70;;;34.30;84.70;;;;;;1951255;71;21129;-80
2021/10/01 06:33:06;;;;;;;7.60;4.47;;;34.30;83.50;;;;;;1909704;74;21082;-82
2021/10/01 06:35:37;;;;;;;10.00;5.17;;;34.00;84.50;;;;;;1934328;73;21253;-80
2021/10/01 06:38:07;;;;;;;11.40;5.03;;;33.70;85.70;;;;;;1933132;74;21080;-81
2021/10/01 06:40:39;;;;;;;7.83;4.10;;;33.50;86.30;;;;;;1932975;74;21564;-82
2021/10/01 06:43:11;;;;;;;15.83;5.83;;;33.20;87.80;;;;;;1942523;74;21122;-81
2021/10/01 06:45:44;;;;;;;10.30;4.75;;;32.90;88.90;;;;;;1936917;74;21061;-82
2021/10/01 07:36:54;;;;;;;13.80;5.35;;;30.60;94.60;;;;;;1937468;74;21162;-79
2021/10/01 07:39:20;;;;;;;13.28;6.25;;;30.60;94.50;;;;;;1893977;74;21141;-79
2021/10/01 08:19:45;;;;;;;12.05;3.70;;;29.80;92.30;;;;;;1945149;73;21603;-79
2021/10/01 08:22:16;;;;;;;6.47;3.20;;;29.80;92.40;;;;;;1946978;74;21068;-78
2021/10/01 08:24:47;;;;;;;6.53;3.58;;;29.80;92.70;;;;;;1944717;74;21403;-79
2021/10/01 08:27:19;;;;;;;5.08;2.90;;;29.70;92.80;;;;;;1941359;74;21563;-78
2021/10/01 08:29:50;;;;;;;8.63;3.33;;;29.70;93.00;;;;;;1938952;74;21104;-83
2021/10/01 08:32:20;;;;;;;5.37;2.90;;;29.70;93.10;;;;;;1945921;74;21068;-78
2021/10/01 08:34:51;;;;;;;7.33;3.30;;;29.70;93.20;;;;;;1947032;74;21111;-77
2021/10/01 08:37:22;;;;;;;6.80;3.70;;;29.80;93.20;;;;;;1908442;75;21516;-80
2021/10/01 08:39:54;;;;;;;5.70;3.75;;;29.80;93.60;;;;;;1923801;74;21578;-82
2021/10/01 08:42:24;;;;;;;7.33;3.10;;;29.90;93.80;;;;;;1936138;74;21477;-80
2021/10/01 08:44:59;;;;;;;9.83;3.40;;;29.90;94.10;;;;;;1968302;73;21638;-78
2021/10/01 08:47:31;;;;;;;8.70;3.30;;;29.80;94.10;;;;;;1915625;74;21431;-79
2021/10/01 08:50:04;;;;;;;7.50;3.45;;;29.80;94.30;;;;;;1933256;74;21194;-83
2021/10/01 08:52:35;;;;;;;5.87;2.92;;;29.80;94.60;;;;;;1906443;75;21077;-79
2021/10/01 08:55:09;;;;;;;9.43;4.20;;;29.80;94.40;;;;;;1945151;74;21516;-81
2021/10/01 08:57:40;;;;;;;6.33;3.08;;;29.80;94.80;;;;;;1947260;74;21579;-80
2021/10/01 09:00:13;;;;;;;11.48;3.92;;;29.70;94.70;;;;;;1947536;74;21084;-81
2021/10/01 09:02:46;;;;;;;9.58;3.00;;;29.70;94.90;;;;;;1946919;74;21599;-79
2021/10/01 09:05:17;;;;;;;5.12;2.85;;;29.70;94.40;;;;;;1935912;74;21128;-80
2021/10/01 09:07:48;;;;;;;6.58;3.12;;;29.70;94.80;;;;;;1913340;75;21204;-79
2021/10/01 09:10:19;;;;;;;6.95;3.30;;;29.70;95.00;;;;;;1913526;74;21085;-80
2021/10/01 09:12:53;;;;;;;7.25;3.20;;;29.70;95.20;;;;;;1913229;74;21122;-80
2021/10/01 09:15:24;;;;;;;6.55;3.62;;;29.80;95.00;;;;;;1919633;74;21356;-81
2021/10/01 09:17:56;;;;;;;8.43;3.37;;;29.80;95.20;;;;;;1946104;74;21523;-81
2021/10/01 09:20:29;;;;;;;7.08;3.40;;;29.80;95.10;;;;;;1947114;74;21107;-81
2021/10/01 09:23:02;;;;;;;6.10;3.58;;;29.80;95.50;;;;;;1946937;74;21967;-80
2021/10/01 09:25:33;;;;;;;5.47;3.80;;;29.80;95.70;;;;;;1914568;73;21139;-80
2021/10/01 09:28:12;;;;;;;7.17;4.42;;;29.70;95.80;;;;;;1913448;75;21549;-81
2021/10/01 09:30:39;;;;;;;9.10;4.78;;;29.60;96.20;;;;;;1912739;75;21611;-81
2021/10/01 09:33:13;;;;;;;7.95;4.83;;;29.60;96.00;;;;;;1943440;74;21379;-81
2021/10/01 09:35:46;;;;;;;17.50;7.90;;;29.60;95.70;;;;;;1910165;75;21465;-79
2021/10/01 09:38:23;;;;;;;9.83;5.03;;;29.50;96.00;;;;;;1908179;74;21078;-76
2021/10/01 09:40:55;;;;;;;7.37;5.33;;;29.50;96.30;;;;;;1894478;75;21655;-79
2021/10/01 09:43:28;;;;;;;7.47;4.83;;;29.40;96.40;;;;;;1894463;74;21537;-79
2021/10/01 09:46:02;;;;;;;8.55;4.53;;;29.40;96.20;;;;;;1894644;76;21585;-80
2021/10/01 09:48:35;;;;;;;6.78;4.45;;;29.50;95.40;;;;;;1894066;75;21161;-76
2021/10/01 09:51:09;;;;;;;6.42;4.17;;;29.50;95.00;;;;;;1894597;76;21635;-77
2021/10/01 09:53:43;;;;;;;6.12;3.70;;;29.50;95.00;;;;;;1903786;74;21570;-78
2021/10/01 09:56:16;;;;;;;9.38;4.75;;;29.60;95.20;;;;;;1927686;74;21560;-80
2021/10/01 09:58:50;;;;;;;7.87;4.40;;;29.60;95.20;;;;;;1893189;75;21081;-79
2021/10/01 10:01:21;;;;;;;6.30;3.95;;;29.60;95.40;;;;;;1905871;74;21077;-79
2021/10/01 10:03:52;;;;;;;11.15;4.28;;;29.70;96.00;;;;;;1927803;74;21591;-79
2021/10/01 10:06:24;;;;;;;6.62;4.25;;;29.70;95.90;;;;;;1918834;74;21133;-78
2021/10/01 10:08:57;;;;;;;12.70;4.53;;;29.70;96.10;;;;;;1844949;78;21637;-77
2021/10/01 10:11:30;;;;;;;10.95;4.95;;;29.70;96.10;;;;;;1845042;78;21524;-79
2021/10/01 10:14:01;;;;;;;7.15;4.22;;;29.70;96.10;;;;;;1865896;75;21054;-79
2021/10/01 10:16:33;;;;;;;7.25;3.85;;;29.80;96.20;;;;;;1876351;76;21211;-80
2021/10/01 10:19:07;;;;;;;7.67;4.40;;;29.90;96.40;;;;;;1876517;76;21073;-76
2021/10/01 10:21:39;;;;;;;8.68;4.33;;;29.80;96.80;;;;;;1876659;76;21121;-79
2021/10/01 10:24:10;;;;;;;8.98;4.55;;;29.80;97.00;;;;;;1876242;76;21175;-77
2021/10/01 10:26:41;;;;;;;6.60;4.25;;;29.80;97.10;;;;;;1876270;76;21126;-78
2021/10/01 10:29:18;;;;;;;8.63;4.22;;;29.80;97.30;;;;;;1877292;76;21130;-78
2021/10/01 10:31:48;;;;;;;;;;;29.70;97.50;;;;;;1878973;76;21095;-78
2021/10/01 10:34:23;;;;;;;7.28;4.40;;;29.60;97.60;;;;;;1865997;77;20449;-77
2021/10/01 10:36:56;;;;;;;10.30;5.78;;;29.70;97.60;;;;;;1915529;75;21661;-76
2021/10/01 10:39:32;;;;;;;60.08;9.95;;;29.60;97.50;;;;;;1913024;75;21489;-86
2021/10/01 10:42:04;;;;;;;17.90;5.25;;;29.60;97.50;;;;;;1903935;75;21041;-87
2021/10/01 10:44:37;;;;;;;8.40;4.62;;;29.60;97.30;;;;;;1903819;75;21482;-87
2021/10/01 10:47:08;;;;;;;6.30;4.03;;;29.60;97.10;;;;;;1903237;75;21054;-87
2021/10/01 10:49:39;;;;;;;11.78;4.40;;;29.60;96.90;;;;;;1903805;75;21085;-87
2021/10/01 10:52:17;;;;;;;7.78;4.30;;;29.60;96.60;;;;;;1903856;75;21085;-87
2021/10/01 10:54:47;;;;;;;10.93;3.90;;;29.60;96.10;;;;;;1904064;73;21074;-87
2021/10/01 10:57:25;;;;;;;5.70;4.08;;;29.50;95.60;;;;;;1903687;74;21045;-87
2021/10/01 10:59:55;;;;;;;5.65;3.80;;;29.50;95.90;;;;;;1903900;73;21093;-86
2021/10/01 11:05:03;;;;;;;9.28;4.12;;;29.40;95.60;;;;;;1903086;75;21121;-86
2021/10/01 11:07:36;;;;;;;7.58;3.85;;;29.30;95.50;;;;;;1890576;75;21528;-86
2021/10/01 11:10:09;;;;;;;6.40;4.20;;;29.30;95.60;;;;;;1901489;74;21085;-87
2021/10/01 11:12:40;;;;;;;5.15;4.10;;;29.20;95.60;;;;;;1901227;75;21202;-88
2021/10/01 11:15:13;;;;;;;7.75;3.90;;;29.10;95.80;;;;;;1904020;75;21120;-88
2021/10/01 11:17:45;;;;;;;10.50;4.90;;;29.10;95.90;;;;;;1904138;75;21069;-88
2021/10/01 11:20:19;;;;;;;5.28;3.67;;;29.10;95.80;;;;;;1902522;74;21070;-87
2021/10/01 11:22:49;;;;;;;9.53;3.85;;;29.00;95.80;;;;;;1902964;75;21147;-87
2021/10/01 11:25:23;;;;;;;6.50;3.90;;;29.00;95.80;;;;;;1904683;75;21101;-87
2021/10/01 11:27:55;;;;;;;6.20;4.10;;;28.90;96.00;;;;;;1904438;75;21123;-88
2021/10/01 11:30:28;;;;;;;7.70;4.40;;;28.90;96.10;;;;;;1904190;75;21131;-87
2021/10/01 11:33:07;;;;;;;6.65;4.60;;;28.80;96.20;;;;;;1904050;75;21084;-87
2021/10/01 11:35:38;;;;;;;6.50;4.50;;;28.80;96.40;;;;;;1900337;73;21098;-87
2021/10/01 11:38:10;;;;;;;7.70;4.37;;;28.80;96.60;;;;;;1902728;75;22246;-87
2021/10/01 11:40:46;;;;;;;7.35;4.35;;;28.80;96.80;;;;;;1906727;73;21069;-86
2021/10/01 11:43:16;;;;;;;7.75;4.20;;;28.80;96.90;;;;;;1905671;75;21115;-87
2021/10/01 11:45:48;;;;;;;7.12;4.50;;;28.70;97.00;;;;;;1904228;75;21113;-87
2021/10/01 11:48:19;;;;;;;6.72;4.30;;;28.80;97.10;;;;;;1904035;74;21058;-87
2021/10/01 11:50:51;;;;;;;9.35;5.45;;;28.70;97.10;;;;;;1903975;75;21561;-87
2021/10/01 11:53:25;;;;;;;8.05;5.05;;;28.80;97.00;;;;;;1903918;75;21100;-87
2021/10/01 11:56:03;;;;;;;8.35;4.67;;;28.80;97.20;;;;;;1904092;75;21065;-86
2021/10/01 11:58:32;;;;;;;9.53;5.30;;;28.70;97.20;;;;;;1867556;77;21052;-86
2021/10/01 12:01:05;;;;;;;8.23;5.05;;;28.70;97.40;;;;;;1867753;77;21130;-86
2021/10/01 12:03:38;;;;;;;6.97;4.22;;;28.70;97.50;;;;;;1866502;75;21123;-87
2021/10/01 12:06:10;;;;;;;6.42;3.72;;;28.60;97.50;;;;;;1925677;73;21057;-87
2021/10/01 12:08:41;;;;;;;8.13;4.62;;;28.60;97.60;;;;;;1911324;75;21065;-86
2021/10/01 12:11:13;;;;;;;8.43;5.12;;;28.60;97.90;;;;;;1904812;75;21049;-87
2021/10/01 12:13:44;;;;;;;6.40;4.50;;;28.60;98.00;;;;;;1904621;75;21590;-87
2021/10/01 12:16:20;;;;;;;8.23;4.40;;;28.60;97.80;;;;;;1904522;75;21081;-87
2021/10/01 12:18:57;;;;;;;6.75;4.20;;;28.60;97.40;;;;;;1903941;75;21210;-87
2021/10/01 12:21:28;;;;;;;7.20;5.12;;;28.60;97.20;;;;;;1867222;77;21138;-87
2021/10/01 12:24:03;;;;;;;8.58;4.67;;;28.70;97.00;;;;;;1911625;75;21077;-87
2021/10/01 12:26:36;;;;;;;7.70;5.60;;;28.80;96.90;;;;;;1880146;75;21060;-87
2021/10/01 12:29:09;;;;;;;8.18;5.60;;;28.80;96.60;;;;;;1904065;75;21501;-87
2021/10/01 12:31:44;;;;;;;8.83;5.17;;;28.80;96.50;;;;;;1902482;75;21164;-87
2021/10/01 12:34:17;;;;;;;9.20;5.70;;;28.90;96.50;;;;;;1903284;75;21226;-86
2021/10/01 12:36:51;;;;;;;11.12;6.00;;;28.80;96.40;;;;;;1903972;75;21143;-87
2021/10/01 12:39:24;;;;;;;10.63;6.30;;;28.90;96.50;;;;;;1903676;75;21128;-86
2021/10/01 12:41:57;;;;;;;10.65;6.28;;;28.90;96.80;;;;;;1903951;75;21072;-86
2021/10/01 12:44:37;;;;;;;10.48;6.12;;;28.90;96.90;;;;;;1904058;74;21143;-88
2021/10/01 12:47:06;;;;;;;11.18;6.53;;;28.90;96.90;;;;;;1903906;73;21102;-86
2021/10/01 12:49:38;;;;;;;9.68;6.20;;;28.90;96.80;;;;;;1903651;75;21159;-86
2021/10/01 12:52:13;;;;;;;10.55;6.85;;;29.00;97.00;;;;;;1903654;74;21093;-87
2021/10/01 12:54:46;;;;;;;10.98;7.33;;;29.00;97.10;;;;;;1904158;75;21134;-87
2021/10/01 12:57:20;;;;;;;12.75;8.25;;;29.00;97.40;;;;;;1903892;75;21262;-87
2021/10/01 12:59:54;;;;;;;12.40;6.45;;;29.00;97.70;;;;;;1904150;75;21070;-87
2021/10/01 13:02:30;;;;;;;9.48;6.37;;;28.90;97.50;;;;;;1903974;75;21070;-86
2021/10/01 13:05:06;;;;;;;10.27;6.13;;;28.90;97.60;;;;;;1867637;76;21097;-87
2021/10/01 13:07:39;;;;;;;9.95;6.33;;;28.80;97.50;;;;;;1904254;75;21548;-86
2021/10/01 13:10:13;;;;;;;10.32;6.20;;;28.80;97.60;;;;;;1904703;75;21077;-86
2021/10/01 13:12:46;;;;;;;10.63;6.15;;;28.70;97.50;;;;;;1904750;75;21062;-87
2021/10/01 13:15:21;;;;;;;10.32;6.53;;;28.70;98.40;;;;;;1901334;73;21107;-87
2021/10/01 13:17:54;;;;;;;9.45;6.60;;;28.60;99.30;;;;;;1906429;75;21113;-87
2021/10/01 13:20:28;;;;;;;9.98;6.72;;;28.60;98.80;;;;;;1903726;73;21096;-87
2021/10/01 13:23:02;;;;;;;9.13;6.45;;;28.50;99.20;;;;;;1908277;75;21069;-87
2021/10/01 13:25:38;;;;;;;9.75;6.60;;;28.50;99.30;;;;;;1907924;75;21092;-87
2021/10/01 13:28:09;;;;;;;7.00;5.85;;;28.40;99.80;;;;;;1907733;74;21081;-88
2021/10/01 13:30:40;;;;;;;9.28;5.97;;;28.30;99.40;;;;;;1907893;75;21062;-88
2021/10/01 13:33:16;;;;;;;8.10;5.35;;;28.40;99.20;;;;;;1907607;75;21121;-86
2021/10/01 13:35:55;;;;;;;7.25;5.50;;;28.30;99.70;;;;;;1906538;75;21101;-87
2021/10/01 13:38:31;;;;;;;9.08;5.90;;;28.30;99.90;;;;;;1905994;75;21190;-87
2021/10/01 13:41:04;;;;;;;7.42;5.83;;;28.30;99.90;;;;;;1905494;75;21056;-86
2021/10/01 13:43:37;;;;;;;10.78;6.50;;;28.30;99.40;;;;;;1905795;75;21550;-87
2021/10/01 13:46:14;;;;;;;7.30;5.90;;;28.30;99.60;;;;;;1846258;76;21118;-86
2021/10/01 13:49:01;;;;;;;;;;;;;;;;;;;;;
2021/10/01 13:51:41;;;;;;;8.10;6.00;;;28.20;99.90;;;;;;1906480;73;21080;-87
2021/10/01 13:54:12;;;;;;;8.53;5.97;;;28.20;99.90;;;;;;1904637;75;21131;-87
2021/10/01 13:56:44;;;;;;;8.65;6.22;;;28.20;99.90;;;;;;1904201;75;21137;-87
2021/10/01 13:59:15;;;;;;;9.73;6.58;;;28.20;99.90;;;;;;1904078;75;21544;-87
2021/10/01 14:01:50;;;;;;;14.83;7.70;;;28.20;99.90;;;;;;1904486;75;21143;-87
2021/10/01 14:04:21;;;;;;;11.85;7.25;;;28.20;99.90;;;;;;1904278;75;21614;-87
2021/10/01 14:06:54;;;;;;;9.33;6.55;;;28.10;99.90;;;;;;1904385;75;21076;-84
2021/10/01 14:09:25;;;;;;;11.10;6.45;;;27.90;99.90;;;;;;1904545;75;21080;-88
2021/10/01 14:11:59;;;;;;;11.65;7.20;;;;;;;;;;1899490;74;21050;-88
2021/10/01 14:14:31;;;;;;;9.73;6.15;;;27.80;99.90;;;;;;1862113;77;21225;-88
2021/10/01 14:17:04;;;;;;;12.58;6.75;;;27.70;99.90;;;;;;1883454;75;21160;-87
2021/10/01 14:19:34;;;;;;;10.43;7.33;;;27.70;99.90;;;;;;1904019;75;21551;-88
2021/10/01 14:22:05;;;;;;;11.83;7.65;;;27.60;99.90;;;;;;1904186;75;21128;-88
2021/10/01 14:24:37;;;;;;;11.88;6.80;;;27.60;99.90;;;;;;1903889;74;21128;-87
2021/10/01 14:27:10;;;;;;;10.80;7.45;;;27.60;99.90;;;;;;1901930;73;21463;-88
2021/10/01 14:29:41;;;;;;;10.60;7.70;;;27.60;99.90;;;;;;1903955;75;21089;-88
2021/10/01 14:32:12;;;;;;;10.85;7.80;;;27.70;99.90;;;;;;1903817;75;21127;-88
2021/10/01 14:34:42;;;;;;;11.43;7.87;;;27.70;99.90;;;;;;1903898;75;21037;-88
2021/10/01 14:37:13;;;;;;;10.23;7.33;;;27.80;99.90;;;;;;1903839;75;21129;-88
2021/10/01 14:39:44;;;;;;;13.80;8.08;;;27.70;99.90;;;;;;1903810;75;21136;-86
2021/10/01 14:42:16;;;;;;;11.43;7.97;;;27.70;99.90;;;;;;1903253;75;21113;-87